sensor_id;sensor_type;location;lat;lon;timestamp;P1;durP1;ratioP1;P2;durP2;ratioP2
23378;SDS011;11862;46.070;13.222;2022-11-12T00:00:30;6.35;;;4.00;;
23378;SDS011;11862;46.070;13.222;2022-11-12T00:02:56;7.13;;;4.15;;
23378;SDS011;11862;46.070;13.222;2022-11-12T00:05:23;5.10;;;3.80;;
23378;SDS011;11862;46.070;13.222;2022-11-12T00:07:49;6.60;;;4.05;;
23378;SDS011;11862;46.070;13.222;2022-11-12T00:10:15;5.70;;;3.80;;
23378;SDS011;11862;46.070;13.222;2022-11-12T00:12:41;4.82;;;3.97;;
23378;SDS011;11862;46.070;13.222;2022-11-12T00:15:07;5.55;;;3.80;;
23378;SDS011;11862;46.070;13.222;2022-11-12T00:17:34;5.88;;;3.60;;
23378;SDS011;11862;46.070;13.222;2022-11-12T00:19:59;5.53;;;3.58;;
23378;SDS011;11862;46.070;13.222;2022-11-12T00:22:25;5.05;;;3.85;;
23378;SDS011;11862;46.070;13.222;2022-11-12T00:24:51;4.97;;;3.42;;
23378;SDS011;11862;46.070;13.222;2022-11-12T00:27:17;4.95;;;3.80;;
23378;SDS011;11862;46.070;13.222;2022-11-12T00:29:43;6.13;;;3.45;;
23378;SDS011;11862;46.070;13.222;2022-11-12T00:32:09;6.72;;;3.40;;
23378;SDS011;11862;46.070;13.222;2022-11-12T00:34:35;6.75;;;3.22;;
23378;SDS011;11862;46.070;13.222;2022-11-12T00:37:01;4.68;;;3.30;;
23378;SDS011;11862;46.070;13.222;2022-11-12T00:39:28;4.43;;;3.20;;
23378;SDS011;11862;46.070;13.222;2022-11-12T00:41:54;4.00;;;3.15;;
23378;SDS011;11862;46.070;13.222;2022-11-12T00:44:20;3.88;;;3.35;;
23378;SDS011;11862;46.070;13.222;2022-11-12T00:46:46;5.70;;;3.50;;
23378;SDS011;11862;46.070;13.222;2022-11-12T00:49:12;4.97;;;3.20;;
23378;SDS011;11862;46.070;13.222;2022-11-12T00:51:38;5.45;;;3.50;;
23378;SDS011;11862;46.070;13.222;2022-11-12T00:54:05;5.35;;;3.58;;
23378;SDS011;11862;46.070;13.222;2022-11-12T00:56:31;3.88;;;3.10;;
23378;SDS011;11862;46.070;13.222;2022-11-12T00:58:57;4.90;;;3.65;;
23378;SDS011;11862;46.070;13.222;2022-11-12T01:01:24;3.95;;;3.10;;
23378;SDS011;11862;46.070;13.222;2022-11-12T01:03:50;4.70;;;3.22;;
23378;SDS011;11862;46.070;13.222;2022-11-12T01:06:18;5.18;;;3.65;;
23378;SDS011;11862;46.070;13.222;2022-11-12T01:08:45;5.80;;;4.07;;
23378;SDS011;11862;46.070;13.222;2022-11-12T01:11:18;5.05;;;3.70;;
23378;SDS011;11862;46.070;13.222;2022-11-12T01:13:53;4.95;;;3.75;;
23378;SDS011;11862;46.070;13.222;2022-11-12T01:16:21;5.05;;;3.55;;
23378;SDS011;11862;46.070;13.222;2022-11-12T01:18:53;3.25;;;2.63;;
23378;SDS011;11862;46.070;13.222;2022-11-12T01:21:21;4.30;;;3.03;;
23378;SDS011;11862;46.070;13.222;2022-11-12T01:23:48;4.00;;;2.97;;
23378;SDS011;11862;46.070;13.222;2022-11-12T01:26:16;3.40;;;2.60;;
23378;SDS011;11862;46.070;13.222;2022-11-12T01:28:43;2.58;;;2.38;;
23378;SDS011;11862;46.070;13.222;2022-11-12T01:31:17;2.72;;;2.45;;
23378;SDS011;11862;46.070;13.222;2022-11-12T01:33:48;3.55;;;2.45;;
23378;SDS011;11862;46.070;13.222;2022-11-12T01:36:17;4.07;;;2.25;;
23378;SDS011;11862;46.070;13.222;2022-11-12T01:38:44;2.53;;;2.28;;
23378;SDS011;11862;46.070;13.222;2022-11-12T01:41:21;3.33;;;2.13;;
23378;SDS011;11862;46.070;13.222;2022-11-12T01:44:05;4.28;;;2.20;;
23378;SDS011;11862;46.070;13.222;2022-11-12T01:46:50;4.28;;;2.10;;
23378;SDS011;11862;46.070;13.222;2022-11-12T01:49:20;5.40;;;2.40;;
23378;SDS011;11862;46.070;13.222;2022-11-12T01:52:21;2.97;;;1.92;;
23378;SDS011;11862;46.070;13.222;2022-11-12T01:55:07;2.20;;;2.00;;
23378;SDS011;11862;46.070;13.222;2022-11-12T01:57:39;2.45;;;2.20;;
23378;SDS011;11862;46.070;13.222;2022-11-12T02:02:36;2.58;;;2.30;;
23378;SDS011;11862;46.070;13.222;2022-11-12T02:05:03;2.63;;;2.13;;
23378;SDS011;11862;46.070;13.222;2022-11-12T02:07:33;2.63;;;2.25;;
23378;SDS011;11862;46.070;13.222;2022-11-12T02:10:02;3.42;;;2.10;;
23378;SDS011;11862;46.070;13.222;2022-11-12T02:12:29;5.18;;;2.25;;
23378;SDS011;11862;46.070;13.222;2022-11-12T02:15:14;4.38;;;2.33;;
23378;SDS011;11862;46.070;13.222;2022-11-12T02:17:49;2.30;;;1.90;;
23378;SDS011;11862;46.070;13.222;2022-11-12T02:20:15;2.28;;;2.08;;
23378;SDS011;11862;46.070;13.222;2022-11-12T02:22:41;3.38;;;1.88;;
23378;SDS011;11862;46.070;13.222;2022-11-12T02:25:08;4.45;;;2.10;;
23378;SDS011;11862;46.070;13.222;2022-11-12T02:27:38;2.00;;;1.70;;
23378;SDS011;11862;46.070;13.222;2022-11-12T02:30:04;2.28;;;2.08;;
23378;SDS011;11862;46.070;13.222;2022-11-12T02:32:30;3.20;;;2.05;;
23378;SDS011;11862;46.070;13.222;2022-11-12T02:34:56;2.33;;;2.13;;
23378;SDS011;11862;46.070;13.222;2022-11-12T02:37:22;3.90;;;2.20;;
23378;SDS011;11862;46.070;13.222;2022-11-12T02:39:48;5.25;;;2.30;;
23378;SDS011;11862;46.070;13.222;2022-11-12T02:42:13;2.30;;;1.77;;
23378;SDS011;11862;46.070;13.222;2022-11-12T02:44:39;3.03;;;2.00;;
23378;SDS011;11862;46.070;13.222;2022-11-12T02:47:05;2.60;;;1.58;;
23378;SDS011;11862;46.070;13.222;2022-11-12T02:49:31;2.78;;;2.10;;
23378;SDS011;11862;46.070;13.222;2022-11-12T02:51:57;2.83;;;1.98;;
23378;SDS011;11862;46.070;13.222;2022-11-12T02:54:23;2.88;;;1.58;;
23378;SDS011;11862;46.070;13.222;2022-11-12T02:56:51;3.47;;;1.70;;
23378;SDS011;11862;46.070;13.222;2022-11-12T02:59:16;2.08;;;1.67;;
23378;SDS011;11862;46.070;13.222;2022-11-12T03:01:42;2.92;;;1.95;;
23378;SDS011;11862;46.070;13.222;2022-11-12T03:04:11;8.32;;;1.98;;
23378;SDS011;11862;46.070;13.222;2022-11-12T03:06:37;1.98;;;1.80;;
23378;SDS011;11862;46.070;13.222;2022-11-12T03:09:03;2.42;;;1.80;;
23378;SDS011;11862;46.070;13.222;2022-11-12T03:11:29;3.70;;;2.05;;
23378;SDS011;11862;46.070;13.222;2022-11-12T03:13:55;2.47;;;1.95;;
23378;SDS011;11862;46.070;13.222;2022-11-12T03:16:20;2.40;;;1.98;;
23378;SDS011;11862;46.070;13.222;2022-11-12T03:18:46;2.30;;;1.85;;
23378;SDS011;11862;46.070;13.222;2022-11-12T03:21:12;3.88;;;2.17;;
23378;SDS011;11862;46.070;13.222;2022-11-12T03:23:38;3.97;;;2.20;;
23378;SDS011;11862;46.070;13.222;2022-11-12T03:26:03;3.25;;;2.30;;
23378;SDS011;11862;46.070;13.222;2022-11-12T03:28:29;4.97;;;2.55;;
23378;SDS011;11862;46.070;13.222;2022-11-12T03:30:56;3.28;;;2.67;;
23378;SDS011;11862;46.070;13.222;2022-11-12T03:33:25;4.28;;;2.47;;
23378;SDS011;11862;46.070;13.222;2022-11-12T03:35:51;2.95;;;2.45;;
23378;SDS011;11862;46.070;13.222;2022-11-12T03:38:16;3.42;;;1.98;;
23378;SDS011;11862;46.070;13.222;2022-11-12T03:40:42;4.32;;;2.08;;
23378;SDS011;11862;46.070;13.222;2022-11-12T03:43:08;3.08;;;2.30;;
23378;SDS011;11862;46.070;13.222;2022-11-12T03:45:34;3.33;;;1.90;;
23378;SDS011;11862;46.070;13.222;2022-11-12T03:48:00;2.25;;;1.88;;
23378;SDS011;11862;46.070;13.222;2022-11-12T03:50:26;2.88;;;2.20;;
23378;SDS011;11862;46.070;13.222;2022-11-12T03:52:54;3.20;;;2.30;;
23378;SDS011;11862;46.070;13.222;2022-11-12T03:55:22;2.42;;;1.70;;
23378;SDS011;11862;46.070;13.222;2022-11-12T03:57:49;2.35;;;2.00;;
23378;SDS011;11862;46.070;13.222;2022-11-12T04:00:16;3.53;;;2.10;;
23378;SDS011;11862;46.070;13.222;2022-11-12T04:02:42;4.47;;;2.20;;
23378;SDS011;11862;46.070;13.222;2022-11-12T04:05:08;3.13;;;2.40;;
23378;SDS011;11862;46.070;13.222;2022-11-12T04:08:00;2.30;;;1.98;;
23378;SDS011;11862;46.070;13.222;2022-11-12T04:10:46;4.72;;;2.00;;
23378;SDS011;11862;46.070;13.222;2022-11-12T04:13:12;2.10;;;1.70;;
23378;SDS011;11862;46.070;13.222;2022-11-12T04:18:37;1.83;;;1.20;;
23378;SDS011;11862;46.070;13.222;2022-11-12T04:21:25;1.90;;;1.52;;
23378;SDS011;11862;46.070;13.222;2022-11-12T04:24:13;1.65;;;1.42;;
23378;SDS011;11862;46.070;13.222;2022-11-12T04:26:59;1.70;;;1.40;;
23378;SDS011;11862;46.070;13.222;2022-11-12T04:29:25;1.30;;;1.20;;
23378;SDS011;11862;46.070;13.222;2022-11-12T04:32:10;1.58;;;1.40;;
23378;SDS011;11862;46.070;13.222;2022-11-12T04:34:36;1.67;;;1.30;;
23378;SDS011;11862;46.070;13.222;2022-11-12T04:37:03;2.35;;;1.50;;
23378;SDS011;11862;46.070;13.222;2022-11-12T04:39:30;3.92;;;1.38;;
23378;SDS011;11862;46.070;13.222;2022-11-12T04:41:56;4.10;;;1.27;;
23378;SDS011;11862;46.070;13.222;2022-11-12T04:44:41;1.27;;;1.17;;
23378;SDS011;11862;46.070;13.222;2022-11-12T04:47:28;2.63;;;1.33;;
23378;SDS011;11862;46.070;13.222;2022-11-12T04:50:06;1.75;;;1.00;;
23378;SDS011;11862;46.070;13.222;2022-11-12T04:55:02;1.20;;;1.10;;
23378;SDS011;11862;46.070;13.222;2022-11-12T04:57:28;1.63;;;1.30;;
23378;SDS011;11862;46.070;13.222;2022-11-12T04:59:54;4.47;;;1.48;;
23378;SDS011;11862;46.070;13.222;2022-11-12T05:02:20;1.83;;;1.13;;
23378;SDS011;11862;46.070;13.222;2022-11-12T05:04:46;1.23;;;1.13;;
23378;SDS011;11862;46.070;13.222;2022-11-12T05:07:13;2.28;;;1.17;;
23378;SDS011;11862;46.070;13.222;2022-11-12T05:09:39;1.58;;;1.20;;
23378;SDS011;11862;46.070;13.222;2022-11-12T05:12:05;2.70;;;1.10;;
23378;SDS011;11862;46.070;13.222;2022-11-12T05:14:31;5.40;;;1.17;;
23378;SDS011;11862;46.070;13.222;2022-11-12T05:16:57;1.40;;;1.10;;
23378;SDS011;11862;46.070;13.222;2022-11-12T05:19:23;1.88;;;1.33;;
23378;SDS011;11862;46.070;13.222;2022-11-12T05:21:49;2.70;;;1.30;;
23378;SDS011;11862;46.070;13.222;2022-11-12T05:24:36;1.77;;;1.08;;
23378;SDS011;11862;46.070;13.222;2022-11-12T05:27:05;3.17;;;1.50;;
23378;SDS011;11862;46.070;13.222;2022-11-12T05:29:41;1.48;;;1.25;;
23378;SDS011;11862;46.070;13.222;2022-11-12T05:32:08;1.90;;;1.10;;
23378;SDS011;11862;46.070;13.222;2022-11-12T05:34:35;3.75;;;1.35;;
23378;SDS011;11862;46.070;13.222;2022-11-12T05:37:02;1.27;;;1.10;;
23378;SDS011;11862;46.070;13.222;2022-11-12T05:39:29;2.25;;;1.40;;
23378;SDS011;11862;46.070;13.222;2022-11-12T05:41:55;1.80;;;1.30;;
23378;SDS011;11862;46.070;13.222;2022-11-12T05:44:21;1.90;;;1.50;;
23378;SDS011;11862;46.070;13.222;2022-11-12T05:46:46;3.00;;;0.98;;
23378;SDS011;11862;46.070;13.222;2022-11-12T05:49:14;1.80;;;1.25;;
23378;SDS011;11862;46.070;13.222;2022-11-12T05:51:40;2.13;;;1.38;;
23378;SDS011;11862;46.070;13.222;2022-11-12T05:54:06;2.55;;;1.60;;
23378;SDS011;11862;46.070;13.222;2022-11-12T05:56:32;3.45;;;1.80;;
23378;SDS011;11862;46.070;13.222;2022-11-12T05:58:58;5.03;;;1.92;;
23378;SDS011;11862;46.070;13.222;2022-11-12T06:01:25;2.70;;;1.80;;
23378;SDS011;11862;46.070;13.222;2022-11-12T06:03:51;3.83;;;2.30;;
23378;SDS011;11862;46.070;13.222;2022-11-12T06:06:16;3.75;;;2.50;;
23378;SDS011;11862;46.070;13.222;2022-11-12T06:08:42;3.72;;;2.45;;
23378;SDS011;11862;46.070;13.222;2022-11-12T06:11:08;4.15;;;2.60;;
23378;SDS011;11862;46.070;13.222;2022-11-12T06:13:34;5.82;;;2.67;;
23378;SDS011;11862;46.070;13.222;2022-11-12T06:15:59;4.72;;;2.58;;
23378;SDS011;11862;46.070;13.222;2022-11-12T06:18:25;3.97;;;2.58;;
23378;SDS011;11862;46.070;13.222;2022-11-12T06:20:51;7.22;;;3.20;;
23378;SDS011;11862;46.070;13.222;2022-11-12T06:23:43;6.50;;;3.00;;
23378;SDS011;11862;46.070;13.222;2022-11-12T06:26:09;6.55;;;4.75;;
23378;SDS011;11862;46.070;13.222;2022-11-12T06:28:35;7.80;;;4.20;;
23378;SDS011;11862;46.070;13.222;2022-11-12T06:31:01;7.15;;;3.17;;
23378;SDS011;11862;46.070;13.222;2022-11-12T06:33:26;3.63;;;2.15;;
23378;SDS011;11862;46.070;13.222;2022-11-12T06:35:56;3.67;;;2.50;;
23378;SDS011;11862;46.070;13.222;2022-11-12T06:38:29;4.25;;;3.33;;
23378;SDS011;11862;46.070;13.222;2022-11-12T06:40:58;3.78;;;3.25;;
23378;SDS011;11862;46.070;13.222;2022-11-12T06:43:26;5.15;;;3.50;;
23378;SDS011;11862;46.070;13.222;2022-11-12T06:46:00;3.53;;;2.15;;
23378;SDS011;11862;46.070;13.222;2022-11-12T06:48:38;4.72;;;3.13;;
23378;SDS011;11862;46.070;13.222;2022-11-12T06:51:18;4.45;;;2.50;;
23378;SDS011;11862;46.070;13.222;2022-11-12T06:54:29;9.95;;;6.57;;
23378;SDS011;11862;46.070;13.222;2022-11-12T06:56:58;4.85;;;4.28;;
23378;SDS011;11862;46.070;13.222;2022-11-12T06:59:31;6.55;;;4.22;;
23378;SDS011;11862;46.070;13.222;2022-11-12T07:02:03;6.65;;;3.55;;
23378;SDS011;11862;46.070;13.222;2022-11-12T07:04:32;6.93;;;4.60;;
23378;SDS011;11862;46.070;13.222;2022-11-12T07:07:04;4.85;;;3.72;;
23378;SDS011;11862;46.070;13.222;2022-11-12T07:12:05;6.00;;;2.20;;
23378;SDS011;11862;46.070;13.222;2022-11-12T07:14:32;3.80;;;2.10;;
23378;SDS011;11862;46.070;13.222;2022-11-12T07:16:58;2.20;;;1.88;;
23378;SDS011;11862;46.070;13.222;2022-11-12T07:19:27;2.42;;;1.92;;
23378;SDS011;11862;46.070;13.222;2022-11-12T07:21:53;3.22;;;1.45;;
23378;SDS011;11862;46.070;13.222;2022-11-12T07:24:19;1.85;;;1.52;;
23378;SDS011;11862;46.070;13.222;2022-11-12T07:26:46;7.35;;;1.80;;
23378;SDS011;11862;46.070;13.222;2022-11-12T07:29:12;4.07;;;1.80;;
23378;SDS011;11862;46.070;13.222;2022-11-12T07:31:38;5.30;;;2.00;;
23378;SDS011;11862;46.070;13.222;2022-11-12T07:34:06;6.85;;;2.65;;
23378;SDS011;11862;46.070;13.222;2022-11-12T07:36:33;3.10;;;2.20;;
23378;SDS011;11862;46.070;13.222;2022-11-12T07:39:01;5.22;;;2.67;;
23378;SDS011;11862;46.070;13.222;2022-11-12T07:41:28;4.38;;;2.53;;
23378;SDS011;11862;46.070;13.222;2022-11-12T07:43:55;3.60;;;2.45;;
23378;SDS011;11862;46.070;13.222;2022-11-12T07:46:29;4.95;;;2.63;;
23378;SDS011;11862;46.070;13.222;2022-11-12T07:48:59;5.32;;;2.15;;
23378;SDS011;11862;46.070;13.222;2022-11-12T07:51:26;5.63;;;2.67;;
23378;SDS011;11862;46.070;13.222;2022-11-12T07:54:00;4.40;;;2.95;;
23378;SDS011;11862;46.070;13.222;2022-11-12T07:56:30;3.65;;;2.72;;
23378;SDS011;11862;46.070;13.222;2022-11-12T07:59:00;5.15;;;3.15;;
23378;SDS011;11862;46.070;13.222;2022-11-12T08:01:35;4.30;;;2.97;;
23378;SDS011;11862;46.070;13.222;2022-11-12T08:04:07;3.78;;;1.92;;
23378;SDS011;11862;46.070;13.222;2022-11-12T08:06:36;3.97;;;2.00;;
23378;SDS011;11862;46.070;13.222;2022-11-12T08:09:04;3.65;;;2.10;;
23378;SDS011;11862;46.070;13.222;2022-11-12T08:11:35;3.05;;;2.40;;
23378;SDS011;11862;46.070;13.222;2022-11-12T08:14:02;3.15;;;2.47;;
23378;SDS011;11862;46.070;13.222;2022-11-12T08:16:29;5.32;;;2.40;;
23378;SDS011;11862;46.070;13.222;2022-11-12T08:18:57;4.22;;;2.10;;
23378;SDS011;11862;46.070;13.222;2022-11-12T08:21:29;3.22;;;2.03;;
23378;SDS011;11862;46.070;13.222;2022-11-12T08:23:55;5.35;;;2.20;;
23378;SDS011;11862;46.070;13.222;2022-11-12T08:26:24;3.47;;;2.35;;
23378;SDS011;11862;46.070;13.222;2022-11-12T08:28:51;6.15;;;5.50;;
23378;SDS011;11862;46.070;13.222;2022-11-12T08:31:19;4.43;;;2.58;;
23378;SDS011;11862;46.070;13.222;2022-11-12T08:33:47;3.08;;;2.58;;
23378;SDS011;11862;46.070;13.222;2022-11-12T08:36:14;5.22;;;2.70;;
23378;SDS011;11862;46.070;13.222;2022-11-12T08:38:42;4.47;;;2.90;;
23378;SDS011;11862;46.070;13.222;2022-11-12T08:41:12;5.28;;;3.55;;
23378;SDS011;11862;46.070;13.222;2022-11-12T08:43:39;5.18;;;3.47;;
23378;SDS011;11862;46.070;13.222;2022-11-12T08:46:06;5.97;;;4.60;;
23378;SDS011;11862;46.070;13.222;2022-11-12T08:48:36;7.20;;;4.10;;
23378;SDS011;11862;46.070;13.222;2022-11-12T08:51:04;6.85;;;3.85;;
23378;SDS011;11862;46.070;13.222;2022-11-12T08:53:33;5.45;;;4.35;;
23378;SDS011;11862;46.070;13.222;2022-11-12T08:56:00;6.85;;;4.50;;
23378;SDS011;11862;46.070;13.222;2022-11-12T08:58:32;6.32;;;4.95;;
23378;SDS011;11862;46.070;13.222;2022-11-12T09:01:03;6.40;;;4.45;;
23378;SDS011;11862;46.070;13.222;2022-11-12T09:03:56;9.23;;;4.28;;
23378;SDS011;11862;46.070;13.222;2022-11-12T09:06:30;8.45;;;4.60;;
23378;SDS011;11862;46.070;13.222;2022-11-12T09:08:57;9.07;;;5.60;;
23378;SDS011;11862;46.070;13.222;2022-11-12T09:11:28;7.82;;;5.05;;
23378;SDS011;11862;46.070;13.222;2022-11-12T09:14:00;6.80;;;4.50;;
23378;SDS011;11862;46.070;13.222;2022-11-12T09:16:27;5.70;;;4.18;;
23378;SDS011;11862;46.070;13.222;2022-11-12T09:18:53;10.15;;;3.95;;
23378;SDS011;11862;46.070;13.222;2022-11-12T09:21:20;5.72;;;4.90;;
23378;SDS011;11862;46.070;13.222;2022-11-12T09:23:48;8.27;;;4.40;;
23378;SDS011;11862;46.070;13.222;2022-11-12T09:26:18;6.45;;;4.57;;
23378;SDS011;11862;46.070;13.222;2022-11-12T09:28:47;6.32;;;4.13;;
23378;SDS011;11862;46.070;13.222;2022-11-12T09:31:16;6.50;;;4.43;;
23378;SDS011;11862;46.070;13.222;2022-11-12T09:33:44;6.25;;;4.20;;
23378;SDS011;11862;46.070;13.222;2022-11-12T09:36:13;7.28;;;3.90;;
23378;SDS011;11862;46.070;13.222;2022-11-12T09:38:41;7.80;;;4.55;;
23378;SDS011;11862;46.070;13.222;2022-11-12T09:41:50;7.45;;;4.90;;
23378;SDS011;11862;46.070;13.222;2022-11-12T09:44:00;6.97;;;4.82;;
23378;SDS011;11862;46.070;13.222;2022-11-12T09:46:59;5.75;;;4.88;;
23378;SDS011;11862;46.070;13.222;2022-11-12T09:49:39;16.02;;;9.90;;
23378;SDS011;11862;46.070;13.222;2022-11-12T09:52:30;11.38;;;7.97;;
23378;SDS011;11862;46.070;13.222;2022-11-12T09:55:14;10.35;;;7.88;;
23378;SDS011;11862;46.070;13.222;2022-11-12T09:58:14;13.10;;;7.95;;
23378;SDS011;11862;46.070;13.222;2022-11-12T10:01:09;11.07;;;7.85;;
23378;SDS011;11862;46.070;13.222;2022-11-12T10:04:02;6.55;;;5.10;;
23378;SDS011;11862;46.070;13.222;2022-11-12T10:18:13;6.40;;;4.65;;
23378;SDS011;11862;46.070;13.222;2022-11-12T10:23:51;6.43;;;4.88;;
23378;SDS011;11862;46.070;13.222;2022-11-12T10:26:24;7.55;;;4.50;;
23378;SDS011;11862;46.070;13.222;2022-11-12T10:31:36;11.68;;;5.10;;
23378;SDS011;11862;46.070;13.222;2022-11-12T10:36:39;10.57;;;5.68;;
23378;SDS011;11862;46.070;13.222;2022-11-12T10:39:36;9.10;;;5.22;;
23378;SDS011;11862;46.070;13.222;2022-11-12T10:42:14;7.45;;;4.60;;
23378;SDS011;11862;46.070;13.222;2022-11-12T10:44:51;7.75;;;5.07;;
23378;SDS011;11862;46.070;13.222;2022-11-12T10:53:01;6.85;;;4.97;;
23378;SDS011;11862;46.070;13.222;2022-11-12T11:02:01;7.47;;;4.97;;
23378;SDS011;11862;46.070;13.222;2022-11-12T11:05:31;11.75;;;6.45;;
23378;SDS011;11862;46.070;13.222;2022-11-12T11:08:29;8.27;;;5.60;;
23378;SDS011;11862;46.070;13.222;2022-11-12T11:16:12;6.30;;;4.20;;
23378;SDS011;11862;46.070;13.222;2022-11-12T11:18:40;4.68;;;3.63;;
23378;SDS011;11862;46.070;13.222;2022-11-12T11:24:33;5.43;;;3.97;;
23378;SDS011;11862;46.070;13.222;2022-11-12T11:27:36;5.95;;;4.07;;
23378;SDS011;11862;46.070;13.222;2022-11-12T11:30:24;3.88;;;3.47;;
23378;SDS011;11862;46.070;13.222;2022-11-12T11:33:02;5.85;;;4.50;;
23378;SDS011;11862;46.070;13.222;2022-11-12T11:38:43;9.57;;;5.45;;
23378;SDS011;11862;46.070;13.222;2022-11-12T11:41:30;8.82;;;5.13;;
23378;SDS011;11862;46.070;13.222;2022-11-12T11:47:08;9.63;;;5.70;;
23378;SDS011;11862;46.070;13.222;2022-11-12T11:50:06;10.40;;;6.75;;
23378;SDS011;11862;46.070;13.222;2022-11-12T12:04:24;9.07;;;6.72;;
23378;SDS011;11862;46.070;13.222;2022-11-12T12:13:21;10.07;;;7.15;;
23378;SDS011;11862;46.070;13.222;2022-11-12T12:18:40;10.38;;;7.47;;
23378;SDS011;11862;46.070;13.222;2022-11-12T12:21:17;11.57;;;6.93;;
23378;SDS011;11862;46.070;13.222;2022-11-12T12:23:49;8.00;;;6.88;;
23378;SDS011;11862;46.070;13.222;2022-11-12T12:26:25;9.55;;;7.32;;
23378;SDS011;11862;46.070;13.222;2022-11-12T12:32:02;9.05;;;7.63;;
23378;SDS011;11862;46.070;13.222;2022-11-12T12:34:43;7.65;;;6.85;;
23378;SDS011;11862;46.070;13.222;2022-11-12T12:37:23;8.55;;;7.65;;
23378;SDS011;11862;46.070;13.222;2022-11-12T12:42:57;8.60;;;7.10;;
23378;SDS011;11862;46.070;13.222;2022-11-12T12:45:45;13.25;;;8.30;;
23378;SDS011;11862;46.070;13.222;2022-11-12T12:48:19;11.50;;;8.27;;
23378;SDS011;11862;46.070;13.222;2022-11-12T12:50:48;10.32;;;7.07;;
23378;SDS011;11862;46.070;13.222;2022-11-12T12:53:17;14.07;;;7.57;;
23378;SDS011;11862;46.070;13.222;2022-11-12T12:55:52;10.32;;;7.40;;
23378;SDS011;11862;46.070;13.222;2022-11-12T12:58:24;11.07;;;7.25;;
23378;SDS011;11862;46.070;13.222;2022-11-12T13:06:53;9.50;;;7.47;;
23378;SDS011;11862;46.070;13.222;2022-11-12T13:08:57;6.78;;;5.68;;
23378;SDS011;11862;46.070;13.222;2022-11-12T13:19:32;13.05;;;9.45;;
23378;SDS011;11862;46.070;13.222;2022-11-12T13:43:34;9.60;;;8.13;;
23378;SDS011;11862;46.070;13.222;2022-11-12T13:48:38;12.80;;;10.18;;
23378;SDS011;11862;46.070;13.222;2022-11-12T13:51:49;13.85;;;10.73;;
23378;SDS011;11862;46.070;13.222;2022-11-12T13:53:55;13.38;;;10.77;;
23378;SDS011;11862;46.070;13.222;2022-11-12T13:56:25;13.82;;;10.23;;
23378;SDS011;11862;46.070;13.222;2022-11-12T13:58:52;12.07;;;9.95;;
23378;SDS011;11862;46.070;13.222;2022-11-12T14:01:19;10.55;;;7.75;;
23378;SDS011;11862;46.070;13.222;2022-11-12T14:03:48;13.40;;;9.55;;
23378;SDS011;11862;46.070;13.222;2022-11-12T14:06:33;14.40;;;9.30;;
23378;SDS011;11862;46.070;13.222;2022-11-12T14:22:54;15.65;;;8.23;;
23378;SDS011;11862;46.070;13.222;2022-11-12T14:25:24;12.77;;;8.82;;
23378;SDS011;11862;46.070;13.222;2022-11-12T14:27:52;13.32;;;8.50;;
23378;SDS011;11862;46.070;13.222;2022-11-12T14:30:22;12.82;;;9.13;;
23378;SDS011;11862;46.070;13.222;2022-11-12T14:33:08;12.65;;;9.70;;
23378;SDS011;11862;46.070;13.222;2022-11-12T14:35:35;13.30;;;8.60;;
23378;SDS011;11862;46.070;13.222;2022-11-12T14:38:04;17.33;;;9.68;;
23378;SDS011;11862;46.070;13.222;2022-11-12T14:45:50;12.85;;;10.48;;
23378;SDS011;11862;46.070;13.222;2022-11-12T14:48:17;17.55;;;11.57;;
23378;SDS011;11862;46.070;13.222;2022-11-12T14:50:44;22.77;;;13.40;;
23378;SDS011;11862;46.070;13.222;2022-11-12T14:55:50;14.57;;;11.07;;
23378;SDS011;11862;46.070;13.222;2022-11-12T14:58:18;16.02;;;11.52;;
23378;SDS011;11862;46.070;13.222;2022-11-12T15:00:49;20.65;;;12.23;;
23378;SDS011;11862;46.070;13.222;2022-11-12T15:03:18;17.37;;;12.40;;
23378;SDS011;11862;46.070;13.222;2022-11-12T15:05:56;17.13;;;12.15;;
23378;SDS011;11862;46.070;13.222;2022-11-12T15:08:33;15.80;;;11.77;;
23378;SDS011;11862;46.070;13.222;2022-11-12T15:11:19;14.80;;;11.82;;
23378;SDS011;11862;46.070;13.222;2022-11-12T15:13:49;15.52;;;12.40;;
23378;SDS011;11862;46.070;13.222;2022-11-12T15:16:18;18.00;;;12.18;;
23378;SDS011;11862;46.070;13.222;2022-11-12T15:21:26;14.95;;;12.65;;
23378;SDS011;11862;46.070;13.222;2022-11-12T15:24:06;17.58;;;12.93;;
23378;SDS011;11862;46.070;13.222;2022-11-12T15:26:45;16.25;;;13.50;;
23378;SDS011;11862;46.070;13.222;2022-11-12T15:29:31;19.95;;;15.02;;
23378;SDS011;11862;46.070;13.222;2022-11-12T15:34:47;19.55;;;14.90;;
23378;SDS011;11862;46.070;13.222;2022-11-12T15:39:44;17.98;;;13.93;;
23378;SDS011;11862;46.070;13.222;2022-11-12T15:42:26;16.45;;;14.57;;
23378;SDS011;11862;46.070;13.222;2022-11-12T15:44:57;14.25;;;11.95;;
23378;SDS011;11862;46.070;13.222;2022-11-12T15:47:26;11.63;;;9.27;;
23378;SDS011;11862;46.070;13.222;2022-11-12T15:49:58;8.00;;;7.00;;
23378;SDS011;11862;46.070;13.222;2022-11-12T15:54:50;8.35;;;6.05;;
23378;SDS011;11862;46.070;13.222;2022-11-12T15:57:17;7.18;;;5.38;;
23378;SDS011;11862;46.070;13.222;2022-11-12T15:59:49;8.02;;;6.65;;
23378;SDS011;11862;46.070;13.222;2022-11-12T16:02:29;9.82;;;6.95;;
23378;SDS011;11862;46.070;13.222;2022-11-12T16:04:56;10.15;;;6.53;;
23378;SDS011;11862;46.070;13.222;2022-11-12T16:07:21;8.43;;;6.55;;
23378;SDS011;11862;46.070;13.222;2022-11-12T16:09:47;10.60;;;7.57;;
23378;SDS011;11862;46.070;13.222;2022-11-12T16:12:13;8.43;;;7.50;;
23378;SDS011;11862;46.070;13.222;2022-11-12T16:14:42;9.63;;;8.02;;
23378;SDS011;11862;46.070;13.222;2022-11-12T16:17:12;9.10;;;8.15;;
23378;SDS011;11862;46.070;13.222;2022-11-12T16:19:42;11.98;;;8.02;;
23378;SDS011;11862;46.070;13.222;2022-11-12T16:22:08;9.30;;;8.30;;
23378;SDS011;11862;46.070;13.222;2022-11-12T16:24:42;10.80;;;8.98;;
23378;SDS011;11862;46.070;13.222;2022-11-12T16:29:37;10.05;;;8.00;;
23378;SDS011;11862;46.070;13.222;2022-11-12T16:32:04;13.93;;;8.77;;
23378;SDS011;11862;46.070;13.222;2022-11-12T16:34:30;11.57;;;8.68;;
23378;SDS011;11862;46.070;13.222;2022-11-12T16:36:56;10.38;;;8.25;;
23378;SDS011;11862;46.070;13.222;2022-11-12T16:39:23;10.77;;;8.45;;
23378;SDS011;11862;46.070;13.222;2022-11-12T16:41:49;11.40;;;9.10;;
23378;SDS011;11862;46.070;13.222;2022-11-12T16:44:15;9.52;;;7.10;;
23378;SDS011;11862;46.070;13.222;2022-11-12T16:46:40;13.25;;;9.35;;
23378;SDS011;11862;46.070;13.222;2022-11-12T16:49:11;13.40;;;9.88;;
23378;SDS011;11862;46.070;13.222;2022-11-12T16:51:38;9.35;;;7.43;;
23378;SDS011;11862;46.070;13.222;2022-11-12T16:54:04;10.93;;;8.98;;
23378;SDS011;11862;46.070;13.222;2022-11-12T16:56:31;9.63;;;7.68;;
23378;SDS011;11862;46.070;13.222;2022-11-12T16:58:57;9.88;;;7.88;;
23378;SDS011;11862;46.070;13.222;2022-11-12T17:01:28;13.30;;;10.10;;
23378;SDS011;11862;46.070;13.222;2022-11-12T17:03:55;12.52;;;9.68;;
23378;SDS011;11862;46.070;13.222;2022-11-12T17:06:23;11.82;;;9.20;;
23378;SDS011;11862;46.070;13.222;2022-11-12T17:09:01;10.63;;;8.10;;
23378;SDS011;11862;46.070;13.222;2022-11-12T17:11:28;9.75;;;7.82;;
23378;SDS011;11862;46.070;13.222;2022-11-12T17:13:54;10.55;;;8.70;;
23378;SDS011;11862;46.070;13.222;2022-11-12T17:16:20;12.00;;;8.20;;
23378;SDS011;11862;46.070;13.222;2022-11-12T17:18:46;11.75;;;8.50;;
23378;SDS011;11862;46.070;13.222;2022-11-12T17:21:15;12.95;;;8.32;;
23378;SDS011;11862;46.070;13.222;2022-11-12T17:23:43;10.37;;;8.63;;
23378;SDS011;11862;46.070;13.222;2022-11-12T17:26:10;11.55;;;8.07;;
23378;SDS011;11862;46.070;13.222;2022-11-12T17:28:38;8.52;;;7.63;;